sensor_id;sensor_type;location;lat;lon;timestamp;temperature;humidity
3790;DHT22;1910;49.042;9.028;2023-04-08T00:01:04;7.70;99.90
3790;DHT22;1910;49.042;9.028;2023-04-08T00:03:30;7.60;99.90
3790;DHT22;1910;49.042;9.028;2023-04-08T00:05:56;7.50;99.90
3790;DHT22;1910;49.042;9.028;2023-04-08T00:08:22;7.60;99.90
3790;DHT22;1910;49.042;9.028;2023-04-08T00:10:47;7.50;99.90
3790;DHT22;1910;49.042;9.028;2023-04-08T00:13:13;7.50;99.90
3790;DHT22;1910;49.042;9.028;2023-04-08T00:15:40;7.50;99.90
3790;DHT22;1910;49.042;9.028;2023-04-08T00:18:06;7.50;99.90
3790;DHT22;1910;49.042;9.028;2023-04-08T00:20:31;7.50;99.90
3790;DHT22;1910;49.042;9.028;2023-04-08T00:22:57;7.40;99.90
3790;DHT22;1910;49.042;9.028;2023-04-08T00:25:22;7.40;99.90
3790;DHT22;1910;49.042;9.028;2023-04-08T00:27:48;7.70;99.90
3790;DHT22;1910;49.042;9.028;2023-04-08T00:30:13;7.30;99.90
3790;DHT22;1910;49.042;9.028;2023-04-08T00:32:40;7.40;99.90
3790;DHT22;1910;49.042;9.028;2023-04-08T00:35:05;7.40;99.90
3790;DHT22;1910;49.042;9.028;2023-04-08T00:37:31;7.40;99.90
3790;DHT22;1910;49.042;9.028;2023-04-08T00:39:57;7.30;99.90
3790;DHT22;1910;49.042;9.028;2023-04-08T00:42:22;7.30;99.90
3790;DHT22;1910;49.042;9.028;2023-04-08T00:44:48;7.30;99.90
3790;DHT22;1910;49.042;9.028;2023-04-08T00:47:14;7.20;99.90
3790;DHT22;1910;49.042;9.028;2023-04-08T00:49:41;7.30;99.90
3790;DHT22;1910;49.042;9.028;2023-04-08T00:52:06;7.30;99.90
3790;DHT22;1910;49.042;9.028;2023-04-08T00:54:32;7.20;99.90
3790;DHT22;1910;49.042;9.028;2023-04-08T00:56:58;7.20;99.90
3790;DHT22;1910;49.042;9.028;2023-04-08T00:59:28;7.20;99.90
3790;DHT22;1910;49.042;9.028;2023-04-08T01:02:02;7.10;99.90
3790;DHT22;1910;49.042;9.028;2023-04-08T01:07:07;7.10;99.90
3790;DHT22;1910;49.042;9.028;2023-04-08T01:09:38;7.00;99.90
3790;DHT22;1910;49.042;9.028;2023-04-08T01:12:06;7.00;99.90
3790;DHT22;1910;49.042;9.028;2023-04-08T01:14:35;6.90;99.90
3790;DHT22;1910;49.042;9.028;2023-04-08T01:17:03;6.90;99.90
3790;DHT22;1910;49.042;9.028;2023-04-08T01:19:33;6.90;99.90
3790;DHT22;1910;49.042;9.028;2023-04-08T01:22:22;6.90;99.90
3790;DHT22;1910;49.042;9.028;2023-04-08T01:25:05;6.80;99.90
3790;DHT22;1910;49.042;9.028;2023-04-08T01:27:33;6.80;99.90
3790;DHT22;1910;49.042;9.028;2023-04-08T01:30:02;6.80;99.90
3790;DHT22;1910;49.042;9.028;2023-04-08T01:32:29;6.80;99.90
3790;DHT22;1910;49.042;9.028;2023-04-08T01:34:56;6.80;99.90
3790;DHT22;1910;49.042;9.028;2023-04-08T01:37:24;6.80;99.90
3790;DHT22;1910;49.042;9.028;2023-04-08T01:39:51;6.80;99.90
3790;DHT22;1910;49.042;9.028;2023-04-08T01:42:18;6.90;99.90
3790;DHT22;1910;49.042;9.028;2023-04-08T01:44:45;6.80;99.90
3790;DHT22;1910;49.042;9.028;2023-04-08T01:47:12;6.80;99.90
3790;DHT22;1910;49.042;9.028;2023-04-08T01:49:38;6.80;99.90
3790;DHT22;1910;49.042;9.028;2023-04-08T01:52:05;6.90;99.90
3790;DHT22;1910;49.042;9.028;2023-04-08T01:54:33;6.90;99.90
3790;DHT22;1910;49.042;9.028;2023-04-08T01:57:00;6.90;99.90
3790;DHT22;1910;49.042;9.028;2023-04-08T01:59:30;6.90;99.90
3790;DHT22;1910;49.042;9.028;2023-04-08T02:01:59;6.90;99.90
3790;DHT22;1910;49.042;9.028;2023-04-08T02:04:26;6.90;99.90
3790;DHT22;1910;49.042;9.028;2023-04-08T02:06:51;6.90;99.90
3790;DHT22;1910;49.042;9.028;2023-04-08T02:11:43;6.90;99.90
3790;DHT22;1910;49.042;9.028;2023-04-08T02:14:08;6.90;99.90
3790;DHT22;1910;49.042;9.028;2023-04-08T02:16:53;7.00;99.90
3790;DHT22;1910;49.042;9.028;2023-04-08T02:19:28;7.00;99.90
3790;DHT22;1910;49.042;9.028;2023-04-08T02:21:59;7.00;99.90
3790;DHT22;1910;49.042;9.028;2023-04-08T02:24:28;6.90;99.90
3790;DHT22;1910;49.042;9.028;2023-04-08T02:26:54;6.90;99.90
3790;DHT22;1910;49.042;9.028;2023-04-08T02:29:21;6.90;99.90
3790;DHT22;1910;49.042;9.028;2023-04-08T02:31:47;6.90;99.90
3790;DHT22;1910;49.042;9.028;2023-04-08T02:34:14;6.80;99.90
3790;DHT22;1910;49.042;9.028;2023-04-08T02:36:40;6.80;99.90
3790;DHT22;1910;49.042;9.028;2023-04-08T02:39:07;6.80;99.90
3790;DHT22;1910;49.042;9.028;2023-04-08T02:41:32;6.70;99.90
3790;DHT22;1910;49.042;9.028;2023-04-08T02:44:00;6.70;99.90
3790;DHT22;1910;49.042;9.028;2023-04-08T02:46:25;6.60;99.90
3790;DHT22;1910;49.042;9.028;2023-04-08T02:48:52;6.60;99.90
3790;DHT22;1910;49.042;9.028;2023-04-08T02:51:18;6.50;99.90
3790;DHT22;1910;49.042;9.028;2023-04-08T02:56:10;6.40;99.90
3790;DHT22;1910;49.042;9.028;2023-04-08T02:58:36;6.50;99.90
3790;DHT22;1910;49.042;9.028;2023-04-08T03:01:01;6.50;99.90
3790;DHT22;1910;49.042;9.028;2023-04-08T03:03:27;6.40;99.90
3790;DHT22;1910;49.042;9.028;2023-04-08T03:05:54;6.50;99.90
3790;DHT22;1910;49.042;9.028;2023-04-08T03:08:20;6.50;99.90
3790;DHT22;1910;49.042;9.028;2023-04-08T03:10:46;6.40;99.90
3790;DHT22;1910;49.042;9.028;2023-04-08T03:13:11;6.50;99.90
3790;DHT22;1910;49.042;9.028;2023-04-08T03:18:03;6.50;99.90
3790;DHT22;1910;49.042;9.028;2023-04-08T03:20:28;6.50;99.90
3790;DHT22;1910;49.042;9.028;2023-04-08T03:22:54;6.50;99.90
3790;DHT22;1910;49.042;9.028;2023-04-08T03:25:19;6.50;99.90
3790;DHT22;1910;49.042;9.028;2023-04-08T03:27:45;6.50;99.90
3790;DHT22;1910;49.042;9.028;2023-04-08T03:30:11;6.60;99.90
3790;DHT22;1910;49.042;9.028;2023-04-08T03:32:36;6.90;99.90
3790;DHT22;1910;49.042;9.028;2023-04-08T03:37:28;6.70;99.90
3790;DHT22;1910;49.042;9.028;2023-04-08T03:39:54;6.70;99.90
3790;DHT22;1910;49.042;9.028;2023-04-08T03:42:20;6.70;99.90
3790;DHT22;1910;49.042;9.028;2023-04-08T03:44:45;6.70;99.90
3790;DHT22;1910;49.042;9.028;2023-04-08T03:47:11;6.70;99.90
3790;DHT22;1910;49.042;9.028;2023-04-08T03:49:36;6.80;99.90
3790;DHT22;1910;49.042;9.028;2023-04-08T03:52:04;6.80;99.90
3790;DHT22;1910;49.042;9.028;2023-04-08T03:54:30;6.80;99.90
3790;DHT22;1910;49.042;9.028;2023-04-08T03:56:55;6.70;99.90
3790;DHT22;1910;49.042;9.028;2023-04-08T03:59:21;6.70;99.90
3790;DHT22;1910;49.042;9.028;2023-04-08T04:01:47;6.50;99.90
3790;DHT22;1910;49.042;9.028;2023-04-08T04:04:13;6.50;99.90
3790;DHT22;1910;49.042;9.028;2023-04-08T04:06:39;6.50;99.90
3790;DHT22;1910;49.042;9.028;2023-04-08T04:09:04;6.40;99.90
3790;DHT22;1910;49.042;9.028;2023-04-08T04:11:30;6.40;99.90
3790;DHT22;1910;49.042;9.028;2023-04-08T04:13:55;6.30;99.90
3790;DHT22;1910;49.042;9.028;2023-04-08T04:16:21;6.20;99.90
3790;DHT22;1910;49.042;9.028;2023-04-08T04:18:47;6.20;99.90
3790;DHT22;1910;49.042;9.028;2023-04-08T04:21:12;6.10;99.90
3790;DHT22;1910;49.042;9.028;2023-04-08T04:23:38;6.10;99.90
3790;DHT22;1910;49.042;9.028;2023-04-08T04:26:10;6.00;99.90
3790;DHT22;1910;49.042;9.028;2023-04-08T04:28:36;6.00;99.90
3790;DHT22;1910;49.042;9.028;2023-04-08T04:31:01;6.00;99.90
3790;DHT22;1910;49.042;9.028;2023-04-08T04:33:27;6.00;99.90
3790;DHT22;1910;49.042;9.028;2023-04-08T04:35:52;6.00;99.90
3790;DHT22;1910;49.042;9.028;2023-04-08T04:38:18;6.00;99.90
3790;DHT22;1910;49.042;9.028;2023-04-08T04:40:43;6.00;99.90
3790;DHT22;1910;49.042;9.028;2023-04-08T04:43:10;6.20;99.90
3790;DHT22;1910;49.042;9.028;2023-04-08T04:45:36;6.10;99.90
3790;DHT22;1910;49.042;9.028;2023-04-08T04:48:02;6.20;99.90
3790;DHT22;1910;49.042;9.028;2023-04-08T04:50:28;6.10;99.90
3790;DHT22;1910;49.042;9.028;2023-04-08T04:52:53;6.10;99.90
3790;DHT22;1910;49.042;9.028;2023-04-08T04:55:19;6.10;99.90
3790;DHT22;1910;49.042;9.028;2023-04-08T04:57:44;6.10;99.90
3790;DHT22;1910;49.042;9.028;2023-04-08T05:00:10;6.00;99.90
3790;DHT22;1910;49.042;9.028;2023-04-08T05:02:36;6.00;99.90
3790;DHT22;1910;49.042;9.028;2023-04-08T05:05:02;6.10;99.90
3790;DHT22;1910;49.042;9.028;2023-04-08T05:07:27;6.10;99.90
3790;DHT22;1910;49.042;9.028;2023-04-08T05:09:53;6.10;99.90
3790;DHT22;1910;49.042;9.028;2023-04-08T05:12:18;6.20;99.90
3790;DHT22;1910;49.042;9.028;2023-04-08T05:14:48;6.10;99.90
3790;DHT22;1910;49.042;9.028;2023-04-08T05:17:13;6.10;99.90
3790;DHT22;1910;49.042;9.028;2023-04-08T05:19:39;6.20;99.90
3790;DHT22;1910;49.042;9.028;2023-04-08T05:22:04;6.20;99.90
3790;DHT22;1910;49.042;9.028;2023-04-08T05:24:30;6.20;99.90
3790;DHT22;1910;49.042;9.028;2023-04-08T05:26:55;6.20;99.90
3790;DHT22;1910;49.042;9.028;2023-04-08T05:29:22;6.30;99.90
3790;DHT22;1910;49.042;9.028;2023-04-08T05:31:49;6.30;99.90
3790;DHT22;1910;49.042;9.028;2023-04-08T05:34:15;6.30;99.90
3790;DHT22;1910;49.042;9.028;2023-04-08T05:36:47;6.40;99.90
3790;DHT22;1910;49.042;9.028;2023-04-08T05:41:41;6.30;99.90
3790;DHT22;1910;49.042;9.028;2023-04-08T05:44:07;6.50;99.90
3790;DHT22;1910;49.042;9.028;2023-04-08T05:46:33;6.60;99.90
3790;DHT22;1910;49.042;9.028;2023-04-08T05:48:58;6.70;99.90
3790;DHT22;1910;49.042;9.028;2023-04-08T05:51:23;6.70;99.90
3790;DHT22;1910;49.042;9.028;2023-04-08T05:53:49;6.70;99.90
3790;DHT22;1910;49.042;9.028;2023-04-08T05:56:15;6.70;99.90
3790;DHT22;1910;49.042;9.028;2023-04-08T05:58:41;7.00;99.90
3790;DHT22;1910;49.042;9.028;2023-04-08T06:01:06;7.00;99.90
3790;DHT22;1910;49.042;9.028;2023-04-08T06:03:32;7.10;99.90
3790;DHT22;1910;49.042;9.028;2023-04-08T06:05:57;7.10;99.90
3790;DHT22;1910;49.042;9.028;2023-04-08T06:08:23;7.10;99.90
3790;DHT22;1910;49.042;9.028;2023-04-08T06:10:50;7.10;99.90
3790;DHT22;1910;49.042;9.028;2023-04-08T06:13:15;7.10;99.90
3790;DHT22;1910;49.042;9.028;2023-04-08T06:15:41;7.10;99.90
3790;DHT22;1910;49.042;9.028;2023-04-08T06:18:07;7.10;99.90
3790;DHT22;1910;49.042;9.028;2023-04-08T06:20:32;7.10;99.90
3790;DHT22;1910;49.042;9.028;2023-04-08T06:22:58;7.10;99.90
3790;DHT22;1910;49.042;9.028;2023-04-08T06:25:23;7.10;99.90
3790;DHT22;1910;49.042;9.028;2023-04-08T06:27:49;7.20;99.90
3790;DHT22;1910;49.042;9.028;2023-04-08T06:30:14;7.30;99.90
3790;DHT22;1910;49.042;9.028;2023-04-08T06:32:41;7.60;99.90
3790;DHT22;1910;49.042;9.028;2023-04-08T06:35:06;7.70;99.90
3790;DHT22;1910;49.042;9.028;2023-04-08T06:37:32;7.60;99.90
3790;DHT22;1910;49.042;9.028;2023-04-08T06:40:03;7.90;99.90
3790;DHT22;1910;49.042;9.028;2023-04-08T06:42:29;8.10;99.90
3790;DHT22;1910;49.042;9.028;2023-04-08T06:44:55;8.20;99.90
3790;DHT22;1910;49.042;9.028;2023-04-08T06:47:21;8.20;99.90
3790;DHT22;1910;49.042;9.028;2023-04-08T06:49:46;8.50;99.90
3790;DHT22;1910;49.042;9.028;2023-04-08T06:52:12;8.70;99.90
3790;DHT22;1910;49.042;9.028;2023-04-08T06:54:38;8.90;99.90
3790;DHT22;1910;49.042;9.028;2023-04-08T06:57:03;9.10;99.90
3790;DHT22;1910;49.042;9.028;2023-04-08T06:59:29;9.50;99.90
3790;DHT22;1910;49.042;9.028;2023-04-08T07:01:54;9.70;99.90
3790;DHT22;1910;49.042;9.028;2023-04-08T07:04:20;9.80;99.90
3790;DHT22;1910;49.042;9.028;2023-04-08T07:06:45;9.60;99.90
3790;DHT22;1910;49.042;9.028;2023-04-08T07:09:11;9.50;99.90
3790;DHT22;1910;49.042;9.028;2023-04-08T07:11:36;9.60;99.90
3790;DHT22;1910;49.042;9.028;2023-04-08T07:14:02;9.40;99.90
3790;DHT22;1910;49.042;9.028;2023-04-08T07:16:28;9.40;99.90
3790;DHT22;1910;49.042;9.028;2023-04-08T07:18:53;9.80;99.90
3790;DHT22;1910;49.042;9.028;2023-04-08T07:21:19;9.80;99.90
3790;DHT22;1910;49.042;9.028;2023-04-08T07:23:44;9.90;99.90
3790;DHT22;1910;49.042;9.028;2023-04-08T07:26:10;10.20;99.90
3790;DHT22;1910;49.042;9.028;2023-04-08T07:28:35;10.70;99.90
3790;DHT22;1910;49.042;9.028;2023-04-08T07:31:14;11.00;99.90
3790;DHT22;1910;49.042;9.028;2023-04-08T07:33:41;11.10;99.90
3790;DHT22;1910;49.042;9.028;2023-04-08T07:36:08;11.20;99.90
3790;DHT22;1910;49.042;9.028;2023-04-08T07:38:34;12.40;99.90
3790;DHT22;1910;49.042;9.028;2023-04-08T07:40:59;12.40;99.90
3790;DHT22;1910;49.042;9.028;2023-04-08T07:45:51;12.50;99.90
3790;DHT22;1910;49.042;9.028;2023-04-08T07:48:17;13.00;99.90
3790;DHT22;1910;49.042;9.028;2023-04-08T07:50:43;13.70;99.90
3790;DHT22;1910;49.042;9.028;2023-04-08T07:53:10;15.00;99.90
3790;DHT22;1910;49.042;9.028;2023-04-08T07:58:03;17.00;99.90
3790;DHT22;1910;49.042;9.028;2023-04-08T08:00:29;17.70;99.90
3790;DHT22;1910;49.042;9.028;2023-04-08T08:02:55;18.10;99.90
3790;DHT22;1910;49.042;9.028;2023-04-08T08:05:21;17.60;99.90
3790;DHT22;1910;49.042;9.028;2023-04-08T08:07:50;18.20;99.90
3790;DHT22;1910;49.042;9.028;2023-04-08T08:10:16;18.20;99.90
3790;DHT22;1910;49.042;9.028;2023-04-08T08:12:41;19.10;99.90
3790;DHT22;1910;49.042;9.028;2023-04-08T08:15:07;19.20;99.90
3790;DHT22;1910;49.042;9.028;2023-04-08T08:17:33;20.20;99.90
3790;DHT22;1910;49.042;9.028;2023-04-08T08:19:59;19.50;95.70
3790;DHT22;1910;49.042;9.028;2023-04-08T08:22:25;19.50;96.00
3790;DHT22;1910;49.042;9.028;2023-04-08T08:24:55;19.90;95.80
3790;DHT22;1910;49.042;9.028;2023-04-08T08:27:22;21.30;93.40
3790;DHT22;1910;49.042;9.028;2023-04-08T08:32:13;23.00;92.00
3790;DHT22;1910;49.042;9.028;2023-04-08T08:34:39;23.20;86.90
3790;DHT22;1910;49.042;9.028;2023-04-08T08:39:30;22.10;77.70
3790;DHT22;1910;49.042;9.028;2023-04-08T08:41:56;20.80;78.50
3790;DHT22;1910;49.042;9.028;2023-04-08T08:49:14;22.40;77.70
3790;DHT22;1910;49.042;9.028;2023-04-08T08:51:40;22.50;72.80
3790;DHT22;1910;49.042;9.028;2023-04-08T08:54:07;21.30;74.10
3790;DHT22;1910;49.042;9.028;2023-04-08T08:56:33;21.20;76.30
3790;DHT22;1910;49.042;9.028;2023-04-08T08:58:58;20.50;75.00
3790;DHT22;1910;49.042;9.028;2023-04-08T09:01:35;21.70;79.30
3790;DHT22;1910;49.042;9.028;2023-04-08T09:04:15;21.70;76.20
3790;DHT22;1910;49.042;9.028;2023-04-08T09:06:43;20.40;73.10
3790;DHT22;1910;49.042;9.028;2023-04-08T09:09:09;19.40;73.20
3790;DHT22;1910;49.042;9.028;2023-04-08T09:11:35;18.60;77.00
3790;DHT22;1910;49.042;9.028;2023-04-08T09:14:01;18.50;78.10
3790;DHT22;1910;49.042;9.028;2023-04-08T09:16:27;18.20;77.30
3790;DHT22;1910;49.042;9.028;2023-04-08T09:18:55;18.70;77.90
3790;DHT22;1910;49.042;9.028;2023-04-08T09:21:32;16.90;81.10
3790;DHT22;1910;49.042;9.028;2023-04-08T09:23:58;15.70;89.40
3790;DHT22;1910;49.042;9.028;2023-04-08T09:26:23;15.80;90.40
3790;DHT22;1910;49.042;9.028;2023-04-08T09:29:02;16.10;88.50
3790;DHT22;1910;49.042;9.028;2023-04-08T09:31:29;16.60;85.80
3790;DHT22;1910;49.042;9.028;2023-04-08T09:34:00;16.70;84.40
3790;DHT22;1910;49.042;9.028;2023-04-08T09:36:27;16.80;86.40
3790;DHT22;1910;49.042;9.028;2023-04-08T09:38:53;16.10;85.30
3790;DHT22;1910;49.042;9.028;2023-04-08T09:41:20;15.90;89.40
3790;DHT22;1910;49.042;9.028;2023-04-08T09:43:49;16.30;78.60
3790;DHT22;1910;49.042;9.028;2023-04-08T09:46:26;16.10;73.30
3790;DHT22;1910;49.042;9.028;2023-04-08T09:49:00;16.00;72.20
3790;DHT22;1910;49.042;9.028;2023-04-08T09:51:30;15.80;73.40
3790;DHT22;1910;49.042;9.028;2023-04-08T09:54:02;16.20;76.60
3790;DHT22;1910;49.042;9.028;2023-04-08T09:56:44;16.30;74.40
3790;DHT22;1910;49.042;9.028;2023-04-08T09:59:14;16.90;75.30
3790;DHT22;1910;49.042;9.028;2023-04-08T10:01:46;17.30;72.10
3790;DHT22;1910;49.042;9.028;2023-04-08T10:04:15;17.50;72.40
3790;DHT22;1910;49.042;9.028;2023-04-08T10:06:43;17.30;71.90
3790;DHT22;1910;49.042;9.028;2023-04-08T10:09:09;16.90;74.00
3790;DHT22;1910;49.042;9.028;2023-04-08T10:11:35;16.90;72.70
3790;DHT22;1910;49.042;9.028;2023-04-08T10:14:01;16.70;74.30
3790;DHT22;1910;49.042;9.028;2023-04-08T10:16:27;16.00;73.80
3790;DHT22;1910;49.042;9.028;2023-04-08T10:18:54;15.30;78.90
3790;DHT22;1910;49.042;9.028;2023-04-08T10:21:41;14.20;83.60
3790;DHT22;1910;49.042;9.028;2023-04-08T10:24:12;14.20;85.50
3790;DHT22;1910;49.042;9.028;2023-04-08T10:26:41;14.40;85.40
3790;DHT22;1910;49.042;9.028;2023-04-08T10:31:45;14.30;87.50
3790;DHT22;1910;49.042;9.028;2023-04-08T10:34:23;14.30;88.70
3790;DHT22;1910;49.042;9.028;2023-04-08T10:36:50;14.20;89.00
3790;DHT22;1910;49.042;9.028;2023-04-08T10:39:17;14.50;89.90
3790;DHT22;1910;49.042;9.028;2023-04-08T10:41:48;14.70;89.70
3790;DHT22;1910;49.042;9.028;2023-04-08T10:44:15;14.90;88.80
3790;DHT22;1910;49.042;9.028;2023-04-08T10:46:42;15.00;89.30
3790;DHT22;1910;49.042;9.028;2023-04-08T10:49:08;14.70;87.90
3790;DHT22;1910;49.042;9.028;2023-04-08T10:51:33;14.20;87.70
3790;DHT22;1910;49.042;9.028;2023-04-08T10:54:26;14.00;90.10
3790;DHT22;1910;49.042;9.028;2023-04-08T10:56:51;13.90;90.70
3790;DHT22;1910;49.042;9.028;2023-04-08T10:59:29;13.90;90.80
3790;DHT22;1910;49.042;9.028;2023-04-08T11:01:56;13.80;91.60
3790;DHT22;1910;49.042;9.028;2023-04-08T11:04:22;13.40;90.60
3790;DHT22;1910;49.042;9.028;2023-04-08T11:06:49;13.40;90.60
3790;DHT22;1910;49.042;9.028;2023-04-08T11:09:16;13.50;91.30
3790;DHT22;1910;49.042;9.028;2023-04-08T11:11:43;13.60;91.20
3790;DHT22;1910;49.042;9.028;2023-04-08T11:14:09;13.70;91.30
3790;DHT22;1910;49.042;9.028;2023-04-08T11:16:39;13.40;90.20
3790;DHT22;1910;49.042;9.028;2023-04-08T11:19:05;13.00;92.50
3790;DHT22;1910;49.042;9.028;2023-04-08T11:21:34;13.00;92.20
3790;DHT22;1910;49.042;9.028;2023-04-08T11:24:05;13.50;92.40
3790;DHT22;1910;49.042;9.028;2023-04-08T11:26:31;12.70;91.90
3790;DHT22;1910;49.042;9.028;2023-04-08T11:28:57;12.50;92.80
3790;DHT22;1910;49.042;9.028;2023-04-08T11:31:23;12.50;93.50
3790;DHT22;1910;49.042;9.028;2023-04-08T11:33:52;12.40;94.90
3790;DHT22;1910;49.042;9.028;2023-04-08T11:36:18;12.30;95.20
3790;DHT22;1910;49.042;9.028;2023-04-08T11:38:43;12.30;96.40
3790;DHT22;1910;49.042;9.028;2023-04-08T11:41:09;12.30;96.50
3790;DHT22;1910;49.042;9.028;2023-04-08T11:43:36;12.50;96.20
3790;DHT22;1910;49.042;9.028;2023-04-08T11:46:11;12.70;96.70
3790;DHT22;1910;49.042;9.028;2023-04-08T11:48:37;12.70;95.70
3790;DHT22;1910;49.042;9.028;2023-04-08T11:51:07;12.70;96.00
3790;DHT22;1910;49.042;9.028;2023-04-08T11:53:36;12.60;95.20
3790;DHT22;1910;49.042;9.028;2023-04-08T11:56:15;12.60;95.10
3790;DHT22;1910;49.042;9.028;2023-04-08T11:58:41;12.30;95.10
3790;DHT22;1910;49.042;9.028;2023-04-08T12:01:07;12.30;95.50
3790;DHT22;1910;49.042;9.028;2023-04-08T12:03:32;12.40;97.00
3790;DHT22;1910;49.042;9.028;2023-04-08T12:05:58;12.60;96.60
3790;DHT22;1910;49.042;9.028;2023-04-08T12:08:24;12.70;96.00
3790;DHT22;1910;49.042;9.028;2023-04-08T12:10:49;12.90;96.00
3790;DHT22;1910;49.042;9.028;2023-04-08T12:13:14;13.10;96.00
3790;DHT22;1910;49.042;9.028;2023-04-08T12:15:40;13.40;94.80
3790;DHT22;1910;49.042;9.028;2023-04-08T12:18:06;13.50;94.90
3790;DHT22;1910;49.042;9.028;2023-04-08T12:20:32;13.60;95.00
3790;DHT22;1910;49.042;9.028;2023-04-08T12:22:57;13.90;95.90
3790;DHT22;1910;49.042;9.028;2023-04-08T12:25:23;14.00;94.60
3790;DHT22;1910;49.042;9.028;2023-04-08T12:27:48;14.10;95.00
3790;DHT22;1910;49.042;9.028;2023-04-08T12:30:14;14.10;95.40
3790;DHT22;1910;49.042;9.028;2023-04-08T12:32:39;13.90;94.90
3790;DHT22;1910;49.042;9.028;2023-04-08T12:35:07;13.80;94.50
3790;DHT22;1910;49.042;9.028;2023-04-08T12:37:32;13.70;94.30
3790;DHT22;1910;49.042;9.028;2023-04-08T12:39:58;14.00;95.00
3790;DHT22;1910;49.042;9.028;2023-04-08T12:42:23;14.20;94.30
3790;DHT22;1910;49.042;9.028;2023-04-08T12:44:49;13.90;94.30
3790;DHT22;1910;49.042;9.028;2023-04-08T12:47:15;13.80;94.20
3790;DHT22;1910;49.042;9.028;2023-04-08T12:49:40;14.00;94.10
3790;DHT22;1910;49.042;9.028;2023-04-08T12:52:06;14.00;94.70
3790;DHT22;1910;49.042;9.028;2023-04-08T12:54:31;14.20;94.20
3790;DHT22;1910;49.042;9.028;2023-04-08T12:56:57;14.20;94.60
3790;DHT22;1910;49.042;9.028;2023-04-08T12:59:22;14.50;94.10
3790;DHT22;1910;49.042;9.028;2023-04-08T13:01:48;14.80;93.10
3790;DHT22;1910;49.042;9.028;2023-04-08T13:04:13;14.40;92.70
3790;DHT22;1910;49.042;9.028;2023-04-08T13:06:39;14.00;93.40
3790;DHT22;1910;49.042;9.028;2023-04-08T13:09:04;14.00;94.00
3790;DHT22;1910;49.042;9.028;2023-04-08T13:11:30;14.00;95.20
3790;DHT22;1910;49.042;9.028;2023-04-08T13:13:58;14.50;94.60
3790;DHT22;1910;49.042;9.028;2023-04-08T13:16:24;14.80;94.50
3790;DHT22;1910;49.042;9.028;2023-04-08T13:18:50;15.10;96.40
3790;DHT22;1910;49.042;9.028;2023-04-08T13:21:16;15.40;93.80
3790;DHT22;1910;49.042;9.028;2023-04-08T13:23:42;15.20;92.60
3790;DHT22;1910;49.042;9.028;2023-04-08T13:26:07;15.30;91.00
3790;DHT22;1910;49.042;9.028;2023-04-08T13:28:33;15.30;90.70
3790;DHT22;1910;49.042;9.028;2023-04-08T13:30:59;15.30;91.00
3790;DHT22;1910;49.042;9.028;2023-04-08T13:33:24;15.10;91.80
3790;DHT22;1910;49.042;9.028;2023-04-08T13:35:50;15.00;92.60
3790;DHT22;1910;49.042;9.028;2023-04-08T13:38:15;15.40;92.50
3790;DHT22;1910;49.042;9.028;2023-04-08T13:40:41;14.60;93.40
3790;DHT22;1910;49.042;9.028;2023-04-08T13:43:08;14.60;93.40
3790;DHT22;1910;49.042;9.028;2023-04-08T13:45:33;14.70;92.40
3790;DHT22;1910;49.042;9.028;2023-04-08T13:47:59;14.50;91.00
3790;DHT22;1910;49.042;9.028;2023-04-08T13:50:25;14.40;91.00
3790;DHT22;1910;49.042;9.028;2023-04-08T13:52:51;14.40;92.70
3790;DHT22;1910;49.042;9.028;2023-04-08T13:55:17;13.90;92.70
3790;DHT22;1910;49.042;9.028;2023-04-08T13:57:42;14.20;93.60
3790;DHT22;1910;49.042;9.028;2023-04-08T14:00:08;14.70;93.80
3790;DHT22;1910;49.042;9.028;2023-04-08T14:02:34;15.10;93.00
3790;DHT22;1910;49.042;9.028;2023-04-08T14:05:00;15.60;91.60
3790;DHT22;1910;49.042;9.028;2023-04-08T14:07:26;15.60;91.60
3790;DHT22;1910;49.042;9.028;2023-04-08T14:09:51;15.80;90.10
3790;DHT22;1910;49.042;9.028;2023-04-08T14:12:17;15.60;91.00
3790;DHT22;1910;49.042;9.028;2023-04-08T14:14:43;15.10;91.10
3790;DHT22;1910;49.042;9.028;2023-04-08T14:17:08;15.00;91.50
3790;DHT22;1910;49.042;9.028;2023-04-08T14:22:00;14.30;92.70
3790;DHT22;1910;49.042;9.028;2023-04-08T14:24:26;14.30;92.70
3790;DHT22;1910;49.042;9.028;2023-04-08T14:26:51;14.20;92.50
3790;DHT22;1910;49.042;9.028;2023-04-08T14:29:17;14.00;91.00
3790;DHT22;1910;49.042;9.028;2023-04-08T14:31:42;13.70;92.40
3790;DHT22;1910;49.042;9.028;2023-04-08T14:34:08;13.60;92.70
3790;DHT22;1910;49.042;9.028;2023-04-08T14:36:33;13.70;92.60
3790;DHT22;1910;49.042;9.028;2023-04-08T14:38:59;13.40;92.60
3790;DHT22;1910;49.042;9.028;2023-04-08T14:41:25;13.40;92.40
3790;DHT22;1910;49.042;9.028;2023-04-08T14:43:53;13.30;91.60
3790;DHT22;1910;49.042;9.028;2023-04-08T14:46:19;13.30;92.00
3790;DHT22;1910;49.042;9.028;2023-04-08T14:48:45;12.80;91.20
3790;DHT22;1910;49.042;9.028;2023-04-08T14:51:10;12.50;91.60
3790;DHT22;1910;49.042;9.028;2023-04-08T14:53:36;12.40;93.00
3790;DHT22;1910;49.042;9.028;2023-04-08T14:58:28;12.50;93.60
3790;DHT22;1910;49.042;9.028;2023-04-08T15:00:54;12.50;93.80
3790;DHT22;1910;49.042;9.028;2023-04-08T15:03:20;12.50;92.80
3790;DHT22;1910;49.042;9.028;2023-04-08T15:05:47;12.50;93.90
3790;DHT22;1910;49.042;9.028;2023-04-08T15:08:13;12.70;94.00
3790;DHT22;1910;49.042;9.028;2023-04-08T15:10:38;12.70;93.90
3790;DHT22;1910;49.042;9.028;2023-04-08T15:13:04;12.60;94.70
3790;DHT22;1910;49.042;9.028;2023-04-08T15:15:30;12.70;95.70
3790;DHT22;1910;49.042;9.028;2023-04-08T15:17:55;12.70;96.50
3790;DHT22;1910;49.042;9.028;2023-04-08T15:20:21;12.80;96.50
3790;DHT22;1910;49.042;9.028;2023-04-08T15:22:47;12.70;96.90
3790;DHT22;1910;49.042;9.028;2023-04-08T15:25:12;12.60;97.20
3790;DHT22;1910;49.042;9.028;2023-04-08T15:27:38;12.50;97.10
3790;DHT22;1910;49.042;9.028;2023-04-08T15:30:07;12.30;97.60
3790;DHT22;1910;49.042;9.028;2023-04-08T15:32:33;12.20;99.00
3790;DHT22;1910;49.042;9.028;2023-04-08T15:34:59;12.00;99.30
3790;DHT22;1910;49.042;9.028;2023-04-08T15:37:25;12.10;99.90
3790;DHT22;1910;49.042;9.028;2023-04-08T15:39:51;12.10;99.90
3790;DHT22;1910;49.042;9.028;2023-04-08T15:42:21;12.00;99.90
3790;DHT22;1910;49.042;9.028;2023-04-08T15:44:47;11.70;99.90
3790;DHT22;1910;49.042;9.028;2023-04-08T15:47:12;11.60;99.90
3790;DHT22;1910;49.042;9.028;2023-04-08T15:49:38;11.70;99.90
3790;DHT22;1910;49.042;9.028;2023-04-08T15:52:05;11.70;99.90
3790;DHT22;1910;49.042;9.028;2023-04-08T15:54:34;11.70;99.90
3790;DHT22;1910;49.042;9.028;2023-04-08T15:57:00;11.70;99.90
3790;DHT22;1910;49.042;9.028;2023-04-08T15:59:30;11.70;99.90
3790;DHT22;1910;49.042;9.028;2023-04-08T16:01:56;11.50;99.90
3790;DHT22;1910;49.042;9.028;2023-04-08T16:04:22;11.30;99.90
3790;DHT22;1910;49.042;9.028;2023-04-08T16:06:48;11.30;99.90
3790;DHT22;1910;49.042;9.028;2023-04-08T16:09:13;11.30;99.90
3790;DHT22;1910;49.042;9.028;2023-04-08T16:11:41;11.30;99.90
3790;DHT22;1910;49.042;9.028;2023-04-08T16:14:08;11.30;99.90
3790;DHT22;1910;49.042;9.028;2023-04-08T16:16:33;11.30;99.90
3790;DHT22;1910;49.042;9.028;2023-04-08T16:18:59;11.30;99.90
3790;DHT22;1910;49.042;9.028;2023-04-08T16:21:26;11.30;99.90
3790;DHT22;1910;49.042;9.028;2023-04-08T16:23:52;11.10;99.90
3790;DHT22;1910;49.042;9.028;2023-04-08T16:26:17;11.10;99.90
3790;DHT22;1910;49.042;9.028;2023-04-08T16:28:44;10.80;99.90
3790;DHT22;1910;49.042;9.028;2023-04-08T16:31:09;10.80;99.90
3790;DHT22;1910;49.042;9.028;2023-04-08T16:33:35;10.90;99.90
3790;DHT22;1910;49.042;9.028;2023-04-08T16:36:00;11.00;99.90
3790;DHT22;1910;49.042;9.028;2023-04-08T16:38:28;10.90;99.90
3790;DHT22;1910;49.042;9.028;2023-04-08T16:40:56;10.90;99.90
3790;DHT22;1910;49.042;9.028;2023-04-08T16:43:22;10.70;99.90